createdAt,value
2018-04-27T00:01:47.441Z,1.90
2018-04-27T00:04:15.776Z,1.93
2018-04-27T00:06:44.115Z,2.07
2018-04-27T00:09:13.155Z,1.90
2018-04-27T00:11:42.195Z,1.60
2018-04-27T00:14:10.483Z,2.40
2018-04-27T00:16:38.739Z,2.03
2018-04-27T00:19:07.756Z,1.87
2018-04-27T00:21:36.030Z,2.07
2018-04-27T00:24:05.139Z,2.00
2018-04-27T00:26:34.147Z,1.70
2018-04-27T00:29:03.165Z,1.87
2018-04-27T00:31:32.163Z,1.90
2018-04-27T00:34:01.171Z,2.17
2018-04-27T00:36:30.162Z,1.97
2018-04-27T00:38:59.174Z,2.00
2018-04-27T00:41:28.169Z,1.90
2018-04-27T00:43:56.410Z,1.80
2018-04-27T00:46:24.666Z,2.23
2018-04-27T00:48:53.742Z,1.80
2018-04-27T00:51:22.665Z,1.83
2018-04-27T00:53:50.960Z,2.13
2018-04-27T00:56:20.333Z,2.30
2018-04-27T00:58:48.579Z,1.90
2018-04-27T01:01:16.812Z,1.60
2018-04-27T01:03:45.078Z,1.40
2018-04-27T01:06:13.291Z,2.30
2018-04-27T01:08:41.546Z,1.70
2018-04-27T01:11:09.811Z,1.60
2018-04-27T01:13:38.172Z,1.47
2018-04-27T01:16:07.107Z,1.97
2018-04-27T01:18:36.167Z,1.53
2018-04-27T01:21:04.399Z,1.83
2018-04-27T01:23:33.762Z,1.90
2018-04-27T01:26:02.015Z,1.60
2018-04-27T01:28:31.003Z,2.00
2018-04-27T01:31:00.023Z,1.73
2018-04-27T01:33:29.125Z,1.90
2018-04-27T01:35:58.905Z,1.63
2018-04-27T01:38:27.135Z,1.70
2018-04-27T01:40:56.283Z,2.40
2018-04-27T01:43:24.527Z,1.80
2018-04-27T01:45:52.771Z,1.80
2018-04-27T01:48:21.007Z,1.83
2018-04-27T01:50:49.272Z,1.70
2018-04-27T01:53:17.507Z,1.80
2018-04-27T01:55:45.750Z,1.90
2018-04-27T01:58:14.001Z,1.50
2018-04-27T02:00:42.283Z,1.70
2018-04-27T02:03:10.523Z,1.80
2018-04-27T02:05:38.764Z,1.90
2018-04-27T02:08:07.007Z,1.70
2018-04-27T02:10:35.243Z,2.17
2018-04-27T02:13:03.474Z,1.90
2018-04-27T02:15:31.727Z,1.73
2018-04-27T02:18:00.243Z,1.90
2018-04-27T02:20:28.559Z,1.63
2018-04-27T02:22:57.556Z,1.83
2018-04-27T02:25:25.795Z,1.60
2018-04-27T02:27:54.028Z,1.90
2018-04-27T02:30:22.277Z,1.83
2018-04-27T02:32:50.532Z,1.83
2018-04-27T02:35:20.295Z,1.87
2018-04-27T02:37:49.365Z,2.00
2018-04-27T02:40:18.753Z,2.10
2018-04-27T02:42:48.506Z,1.80
2018-04-27T02:45:17.553Z,1.80
2018-04-27T02:47:45.887Z,1.70
2018-04-27T02:50:15.020Z,1.87
2018-04-27T02:52:43.271Z,2.10
2018-04-27T02:55:11.500Z,1.90
2018-04-27T02:57:39.751Z,2.23
2018-04-27T03:00:07.983Z,1.70
2018-04-27T03:02:36.227Z,1.87
2018-04-27T03:05:04.467Z,2.33
2018-04-27T03:07:32.716Z,2.30
2018-04-27T03:10:01.740Z,2.07
2018-04-27T03:12:31.354Z,1.87
2018-04-27T03:15:00.349Z,2.53
2018-04-27T03:17:28.591Z,2.37
2018-04-27T03:19:56.835Z,2.40
2018-04-27T03:22:25.867Z,2.33
2018-04-27T03:24:54.090Z,1.93
2018-04-27T03:27:22.332Z,2.30
2018-04-27T03:29:51.324Z,1.80
2018-04-27T03:32:20.339Z,1.87
2018-04-27T03:34:48.670Z,2.03
2018-04-27T03:37:16.913Z,2.20
2018-04-27T03:39:46.003Z,1.97
2018-04-27T03:42:14.247Z,2.40
2018-04-27T03:44:42.478Z,2.30
2018-04-27T03:47:10.740Z,2.30
2018-04-27T03:49:39.008Z,2.00
2018-04-27T03:52:07.239Z,2.27
2018-04-27T03:54:35.471Z,2.10
2018-04-27T03:57:03.735Z,2.03
2018-04-27T03:59:50.565Z,2.30
2018-04-27T04:02:37.529Z,1.93
2018-04-27T04:05:18.271Z,2.03
2018-04-27T04:07:47.303Z,2.23
2018-04-27T04:10:15.584Z,2.50
2018-04-27T04:12:43.863Z,2.40
2018-04-27T04:15:13.063Z,2.50
2018-04-27T04:17:42.231Z,2.53
2018-04-27T04:20:10.488Z,2.70
2018-04-27T04:22:38.750Z,2.30
2018-04-27T04:25:07.911Z,2.50
2018-04-27T04:27:36.173Z,2.30
2018-04-27T04:30:04.457Z,2.40
2018-04-27T04:32:33.479Z,2.20
2018-04-27T04:35:01.715Z,2.37
2018-04-27T04:37:30.043Z,2.50
2018-04-27T04:39:58.274Z,2.27
2018-04-27T04:42:27.273Z,2.47
2018-04-27T04:44:55.488Z,2.20
2018-04-27T04:47:24.496Z,2.37
2018-04-27T04:49:52.739Z,2.57
2018-04-27T04:52:21.037Z,2.27
2018-04-27T04:54:49.222Z,2.47
2018-04-27T04:57:17.450Z,2.27
2018-04-27T04:59:45.690Z,2.60
2018-04-27T05:02:13.948Z,2.27
2018-04-27T05:04:42.964Z,2.37
2018-04-27T05:07:12.038Z,2.67
2018-04-27T05:09:40.474Z,2.43
2018-04-27T05:12:08.758Z,2.57
2018-04-27T05:14:37.759Z,2.90
2018-04-27T05:17:06.761Z,2.57
2018-04-27T05:19:35.746Z,2.80
2018-04-27T05:22:04.048Z,2.63
2018-04-27T05:24:32.383Z,3.00
2018-04-27T05:27:00.642Z,2.47
2018-04-27T05:29:29.647Z,3.00
2018-04-27T05:31:57.870Z,2.70
2018-04-27T05:34:26.110Z,2.77
2018-04-27T05:36:55.099Z,2.70
2018-04-27T05:39:23.351Z,2.77
2018-04-27T05:41:51.635Z,3.03
2018-04-27T05:44:19.907Z,2.93
2018-04-27T05:46:48.908Z,2.13
2018-04-27T05:49:18.012Z,2.60
2018-04-27T05:51:46.994Z,2.40
2018-04-27T05:54:15.398Z,2.57
2018-04-27T05:56:45.143Z,2.43
2018-04-27T05:59:13.407Z,2.60
2018-04-27T06:01:42.456Z,2.67
2018-04-27T06:04:14.447Z,2.50
2018-04-27T06:06:42.687Z,2.67
2018-04-27T06:09:11.751Z,2.77
2018-04-27T06:11:40.052Z,2.80
2018-04-27T06:14:09.127Z,2.70
2018-04-27T06:16:37.480Z,2.70
2018-04-27T06:19:05.766Z,3.37
2018-04-27T06:21:34.772Z,3.10
2018-04-27T06:24:03.804Z,3.47
2018-04-27T06:26:32.809Z,4.00
2018-04-27T06:29:01.060Z,3.70
2018-04-27T06:31:29.304Z,3.30
2018-04-27T06:33:57.564Z,3.13
2018-04-27T06:36:27.588Z,3.67
2018-04-27T06:38:56.600Z,3.03
2018-04-27T06:41:25.618Z,3.77
2018-04-27T06:43:53.867Z,3.50
2018-04-27T06:46:22.251Z,3.83
2018-04-27T06:48:50.523Z,3.90
2018-04-27T06:51:18.765Z,3.37
2018-04-27T06:53:47.809Z,3.60
2018-04-27T06:56:16.067Z,3.53
2018-04-27T06:58:45.138Z,3.13
2018-04-27T07:01:13.403Z,3.90
2018-04-27T07:03:41.691Z,3.60
2018-04-27T07:06:09.963Z,2.90
2018-04-27T07:08:38.251Z,3.43
2018-04-27T07:11:06.512Z,2.73
2018-04-27T07:13:35.543Z,2.77
2018-04-27T07:16:03.807Z,2.73
2018-04-27T07:18:33.006Z,2.40
2018-04-27T07:21:02.015Z,2.60
2018-04-27T07:23:31.063Z,2.63
2018-04-27T07:25:59.414Z,2.97
2018-04-27T07:28:27.608Z,2.53
2018-04-27T07:30:56.640Z,2.70
2018-04-27T07:33:24.878Z,2.67
2018-04-27T07:35:53.130Z,2.30
2018-04-27T07:38:21.381Z,2.40
2018-04-27T07:40:50.414Z,2.60
2018-04-27T07:43:18.655Z,2.70
2018-04-27T07:45:46.911Z,2.70
2018-04-27T07:48:15.163Z,2.30
2018-04-27T07:50:44.179Z,2.53
2018-04-27T07:53:13.187Z,2.43
2018-04-27T07:55:41.439Z,2.20
2018-04-27T07:58:09.692Z,2.40
2018-04-27T08:00:37.987Z,2.37
2018-04-27T08:03:06.247Z,2.47
2018-04-27T08:05:34.485Z,2.47
2018-04-27T08:08:02.730Z,2.30
2018-04-27T08:10:31.015Z,2.20
2018-04-27T08:12:59.259Z,2.30
2018-04-27T08:15:29.231Z,2.23
2018-04-27T08:17:57.475Z,1.77
2018-04-27T08:20:28.440Z,2.03
2018-04-27T08:22:58.272Z,2.37
2018-04-27T08:25:27.998Z,1.87
2018-04-27T08:27:57.293Z,1.70
2018-04-27T08:30:25.586Z,2.13
2018-04-27T08:32:54.604Z,1.53
2018-04-27T08:35:23.627Z,2.63
2018-04-27T08:37:51.870Z,1.80
2018-04-27T08:40:20.191Z,2.20
2018-04-27T08:42:49.239Z,2.20
2018-04-27T08:45:17.512Z,2.47
2018-04-27T08:47:45.747Z,1.67
2018-04-27T08:50:14.013Z,1.80
2018-04-27T08:52:42.258Z,1.70
2018-04-27T08:55:11.317Z,1.80
2018-04-27T08:57:40.361Z,1.90
2018-04-27T09:00:09.424Z,1.90
2018-04-27T09:02:37.649Z,1.80
2018-04-27T09:05:05.912Z,1.37
2018-04-27T09:07:34.156Z,1.50
2018-04-27T09:10:03.229Z,2.30
2018-04-27T09:12:31.494Z,1.47
2018-04-27T09:14:59.783Z,1.57
2018-04-27T09:17:28.028Z,1.70
2018-04-27T09:19:57.074Z,1.60
2018-04-27T09:22:25.315Z,1.53
2018-04-27T09:24:54.324Z,1.70
2018-04-27T09:27:22.557Z,1.53
2018-04-27T09:29:50.820Z,1.60
2018-04-27T09:32:19.155Z,1.73
2018-04-27T09:34:47.327Z,1.60
2018-04-27T09:37:16.173Z,1.93
2018-04-27T09:39:45.219Z,3.37
2018-04-27T09:42:13.483Z,3.13
2018-04-27T09:44:41.788Z,1.90
2018-04-27T09:47:10.111Z,1.80
2018-04-27T09:49:38.422Z,1.87
2018-04-27T09:52:06.662Z,1.80
2018-04-27T09:54:35.719Z,1.63
2018-04-27T09:57:04.737Z,2.17
2018-04-27T09:59:33.736Z,1.87
2018-04-27T10:02:02.006Z,1.80
2018-04-27T10:04:30.269Z,1.80
2018-04-27T10:06:58.520Z,1.40
2018-04-27T10:09:26.783Z,1.73
2018-04-27T10:11:55.043Z,2.00
2018-04-27T10:14:23.355Z,1.80
2018-04-27T10:16:51.636Z,1.70
2018-04-27T10:19:19.899Z,1.80
2018-04-27T10:21:48.163Z,3.40
2018-04-27T10:24:16.390Z,2.90
2018-04-27T10:26:44.696Z,2.30
2018-04-27T10:29:12.943Z,1.80
2018-04-27T10:31:41.225Z,2.23
2018-04-27T10:34:09.514Z,1.80
2018-04-27T10:36:37.841Z,1.97
2018-04-27T10:39:06.772Z,1.90
2018-04-27T10:41:35.036Z,2.00
2018-04-27T10:44:03.287Z,1.97
2018-04-27T10:46:31.545Z,2.03
2018-04-27T10:49:00.544Z,2.07
2018-04-27T10:51:28.781Z,2.50
2018-04-27T10:53:57.028Z,2.00
2018-04-27T10:56:26.043Z,2.33
2018-04-27T10:58:55.075Z,2.20
2018-04-27T11:01:23.380Z,2.47
2018-04-27T11:03:51.652Z,2.33
2018-04-27T11:06:19.902Z,2.57
2018-04-27T11:08:49.658Z,2.63
2018-04-27T11:11:17.905Z,2.57
2018-04-27T11:13:46.195Z,2.40
2018-04-27T11:16:14.496Z,2.50
2018-04-27T11:18:42.842Z,2.50
2018-04-27T11:21:11.101Z,2.40
2018-04-27T11:23:39.511Z,2.40
2018-04-27T11:26:07.838Z,2.80
2018-04-27T11:28:36.109Z,2.70
2018-04-27T11:31:05.092Z,2.50
2018-04-27T11:33:33.342Z,2.30
2018-04-27T11:36:02.359Z,2.30
2018-04-27T11:38:31.420Z,2.57
2018-04-27T11:40:59.674Z,2.67
2018-04-27T11:43:27.930Z,2.50
2018-04-27T11:45:56.178Z,2.00
2018-04-27T11:48:24.449Z,2.40
2018-04-27T11:50:52.700Z,2.73
2018-04-27T11:53:21.787Z,2.63
2018-04-27T11:55:50.044Z,2.60
2018-04-27T11:58:18.327Z,2.80
2018-04-27T12:00:47.413Z,2.53
2018-04-27T12:03:16.456Z,2.73
2018-04-27T12:05:44.731Z,2.93
2018-04-27T12:08:13.088Z,2.90
2018-04-27T12:10:42.232Z,2.53
2018-04-27T12:13:10.507Z,2.43
2018-04-27T12:15:38.762Z,2.23
2018-04-27T12:18:07.787Z,2.27
2018-04-27T12:20:36.794Z,2.63
2018-04-27T12:23:06.554Z,2.60
2018-04-27T12:25:34.815Z,2.80
2018-04-27T12:28:03.087Z,2.70
2018-04-27T12:30:32.130Z,2.43
2018-04-27T12:33:00.391Z,2.43
2018-04-27T12:35:29.415Z,3.10
2018-04-27T12:37:57.683Z,2.30
2018-04-27T12:40:26.721Z,2.40
2018-04-27T12:42:55.022Z,2.50
2018-04-27T12:45:23.281Z,2.30
2018-04-27T12:47:52.286Z,2.63
2018-04-27T12:50:20.513Z,2.30
2018-04-27T12:52:48.815Z,2.67
2018-04-27T12:55:17.071Z,2.30
2018-04-27T12:57:45.368Z,2.87
2018-04-27T13:00:14.392Z,2.43
2018-04-27T13:02:43.431Z,2.20
2018-04-27T13:05:12.544Z,2.30
2018-04-27T13:07:40.899Z,2.10
2018-04-27T13:10:09.145Z,2.73
2018-04-27T13:12:38.187Z,2.43
2018-04-27T13:15:06.489Z,2.40
2018-04-27T13:17:34.743Z,2.17
2018-04-27T13:20:02.996Z,2.10
2018-04-27T13:22:31.248Z,2.17
2018-04-27T13:24:59.486Z,2.80
2018-04-27T13:27:28.510Z,2.60
2018-04-27T13:29:56.759Z,2.50
2018-04-27T13:32:25.813Z,2.60
2018-04-27T13:34:54.698Z,2.23
2018-04-27T13:37:23.737Z,3.27
2018-04-27T13:39:51.979Z,2.00
2018-04-27T13:42:20.226Z,2.30
2018-04-27T13:44:48.471Z,2.70
2018-04-27T13:47:16.734Z,2.30
2018-04-27T13:49:45.754Z,2.40
2018-04-27T13:52:14.038Z,2.10
2018-04-27T13:54:42.283Z,2.50
2018-04-27T13:57:11.287Z,2.43
2018-04-27T13:59:40.313Z,2.20
2018-04-27T14:02:08.571Z,2.20
2018-04-27T14:04:37.596Z,2.33
2018-04-27T14:07:06.597Z,2.47
2018-04-27T14:09:35.623Z,2.40
2018-04-27T14:12:04.707Z,2.17
2018-04-27T14:14:32.985Z,1.70
2018-04-27T14:17:01.232Z,2.60
2018-04-27T14:19:29.534Z,2.40
2018-04-27T14:21:57.805Z,2.30
2018-04-27T14:24:26.108Z,2.00
2018-04-27T14:26:54.507Z,2.10
2018-04-27T14:29:24.271Z,1.87
2018-04-27T14:31:53.296Z,2.10
2018-04-27T14:34:21.572Z,2.40
2018-04-27T14:36:50.583Z,2.00
2018-04-27T14:39:20.346Z,2.17
2018-04-27T14:41:48.580Z,2.00
2018-04-27T14:44:16.843Z,1.70
2018-04-27T14:46:45.855Z,2.17
2018-04-27T14:49:14.142Z,2.10
2018-04-27T14:51:43.410Z,1.90
2018-04-27T14:54:11.736Z,2.30
2018-04-27T14:56:39.991Z,1.90
2018-04-27T14:59:08.275Z,2.20
2018-04-27T15:01:36.571Z,1.97
2018-04-27T15:04:04.843Z,2.00
2018-04-27T15:06:33.096Z,1.77
2018-04-27T15:09:02.104Z,2.43
2018-04-27T15:11:30.370Z,1.90
2018-04-27T15:13:59.425Z,2.00
2018-04-27T15:16:27.649Z,2.37
2018-04-27T15:18:55.939Z,1.77
2018-04-27T15:21:24.189Z,1.93
2018-04-27T15:23:52.626Z,2.23
2018-04-27T15:26:21.663Z,2.17
2018-04-27T15:28:49.939Z,2.67
2018-04-27T15:31:19.519Z,2.10
2018-04-27T15:33:47.865Z,2.20
2018-04-27T15:36:16.032Z,1.90
2018-04-27T15:38:45.042Z,1.90
2018-04-27T15:41:13.325Z,2.13
2018-04-27T15:43:42.350Z,1.80
2018-04-27T15:46:10.749Z,2.30
2018-04-27T15:48:39.004Z,1.77
2018-04-27T15:51:07.275Z,1.93
2018-04-27T15:53:35.538Z,1.97
2018-04-27T15:56:03.842Z,1.93
2018-04-27T15:58:32.909Z,1.70
2018-04-27T16:01:01.171Z,2.00
2018-04-27T16:03:30.191Z,1.90
2018-04-27T16:05:58.551Z,1.90
2018-04-27T16:08:26.794Z,1.87
2018-04-27T16:10:55.217Z,2.10
2018-04-27T16:13:50.788Z,1.63
2018-04-27T16:16:24.230Z,1.83
2018-04-27T16:18:53.271Z,1.60
2018-04-27T16:21:21.557Z,1.50
2018-04-27T16:23:51.756Z,1.60
2018-04-27T16:26:32.299Z,1.70
2018-04-27T16:29:00.559Z,1.70
2018-04-27T16:31:28.834Z,1.50
2018-04-27T16:33:58.169Z,1.77
2018-04-27T16:36:26.419Z,2.30
2018-04-27T16:38:55.825Z,1.83
2018-04-27T16:41:24.087Z,1.50
2018-04-27T16:43:52.436Z,1.57
2018-04-27T16:46:20.882Z,1.80
2018-04-27T16:48:50.342Z,1.93
2018-04-27T16:51:19.598Z,1.80
2018-04-27T16:53:47.817Z,1.60
2018-04-27T16:56:16.853Z,1.73
2018-04-27T16:58:45.963Z,2.40
2018-04-27T17:01:15.849Z,1.80
2018-04-27T17:03:44.225Z,1.53
2018-04-27T17:06:13.290Z,1.80
2018-04-27T17:08:41.578Z,1.80
2018-04-27T17:11:09.854Z,2.07
2018-04-27T17:13:38.888Z,1.40
2018-04-27T17:16:08.261Z,1.80
2018-04-27T17:18:37.375Z,1.90
2018-04-27T17:21:05.930Z,1.30
2018-04-27T17:23:34.157Z,1.73
2018-04-27T17:26:03.184Z,2.00
2018-04-27T17:28:31.523Z,2.50
2018-04-27T17:30:59.730Z,2.30
2018-04-27T17:33:27.973Z,1.90
2018-04-27T17:35:56.268Z,2.50
2018-04-27T17:38:24.565Z,2.07
2018-04-27T17:40:52.857Z,2.20
2018-04-27T17:43:21.142Z,1.97
2018-04-27T17:45:50.188Z,1.80
2018-04-27T17:48:18.370Z,1.83
2018-04-27T17:50:46.638Z,2.20
2018-04-27T17:53:14.907Z,1.90
2018-04-27T17:55:43.261Z,2.40
2018-04-27T17:58:11.487Z,1.67
2018-04-27T18:00:39.792Z,1.90
2018-04-27T18:03:08.027Z,1.70
2018-04-27T18:05:37.055Z,1.77
2018-04-27T18:08:05.291Z,1.60
2018-04-27T18:10:33.559Z,1.70
2018-04-27T18:13:01.806Z,1.63
2018-04-27T18:15:31.745Z,1.37
2018-04-27T18:18:01.399Z,1.23
2018-04-27T18:20:30.404Z,1.10
2018-04-27T18:22:58.777Z,1.57
2018-04-27T18:25:27.812Z,1.50
2018-04-27T18:27:57.027Z,1.50
2018-04-27T18:30:25.291Z,1.47
2018-04-27T18:32:53.647Z,1.57
2018-04-27T18:35:22.664Z,1.43
2018-04-27T18:37:50.895Z,1.43
2018-04-27T18:40:19.177Z,1.93
2018-04-27T18:42:47.450Z,1.63
2018-04-27T18:45:15.674Z,2.67
2018-04-27T18:47:43.935Z,1.80
2018-04-27T18:50:12.204Z,2.70
2018-04-27T18:52:40.475Z,3.93
2018-04-27T18:55:09.507Z,3.07
2018-04-27T18:57:37.762Z,2.60
2018-04-27T19:00:06.768Z,9.53
2018-04-27T19:02:36.163Z,2.87
2018-04-27T19:05:04.436Z,2.67
2018-04-27T19:07:32.687Z,2.03
2018-04-27T19:10:00.974Z,1.97
2018-04-27T19:12:30.023Z,2.07
2018-04-27T19:14:58.264Z,2.47
2018-04-27T19:17:26.522Z,5.20
2018-04-27T19:19:54.839Z,5.43
2018-04-27T19:22:27.808Z,5.67
2018-04-27T19:24:57.916Z,7.53
2018-04-27T19:27:26.174Z,7.47
2018-04-27T19:29:54.450Z,6.00
2018-04-27T19:32:23.470Z,5.83
2018-04-27T19:34:51.729Z,4.77
2018-04-27T19:37:19.988Z,4.83
2018-04-27T19:39:48.244Z,4.00
2018-04-27T19:42:16.540Z,3.90
2018-04-27T19:44:44.788Z,2.93
2018-04-27T19:47:13.062Z,3.20
2018-04-27T19:49:41.433Z,2.57
2018-04-27T19:52:09.692Z,2.37
2018-04-27T19:54:37.923Z,2.17
2018-04-27T19:57:06.187Z,2.30
2018-04-27T19:59:34.431Z,1.70
2018-04-27T20:02:03.468Z,1.87
2018-04-27T20:04:31.725Z,1.70
2018-04-27T20:07:00.780Z,1.30
2018-04-27T20:09:29.032Z,2.03
2018-04-27T20:11:58.081Z,1.43
2018-04-27T20:14:38.463Z,1.50
2018-04-27T20:17:06.715Z,1.47
2018-04-27T20:19:51.440Z,1.30
2018-04-27T20:22:21.328Z,1.57
2018-04-27T20:24:49.564Z,1.33
2018-04-27T20:27:19.519Z,1.73
2018-04-27T20:29:47.756Z,1.50
2018-04-27T20:32:16.011Z,1.43
2018-04-27T20:34:44.397Z,1.30
2018-04-27T20:37:13.462Z,1.50
2018-04-27T20:39:41.707Z,1.40
2018-04-27T20:42:10.093Z,1.40
2018-04-27T20:44:38.411Z,1.50
2018-04-27T20:47:07.892Z,1.63
2018-04-27T20:49:37.921Z,1.57
2018-04-27T20:52:06.171Z,1.43
2018-04-27T20:54:36.709Z,1.40
2018-04-27T20:57:04.946Z,1.73
2018-04-27T20:59:33.263Z,1.50
2018-04-27T21:02:01.526Z,4.47
2018-04-27T21:04:29.788Z,1.97
2018-04-27T21:06:58.915Z,3.43
2018-04-27T21:09:27.913Z,1.67
2018-04-27T21:11:57.652Z,2.43
2018-04-27T21:14:25.924Z,3.70
2018-04-27T21:16:55.871Z,3.10
2018-04-27T21:19:24.165Z,4.07
2018-04-27T21:21:52.403Z,5.97
2018-04-27T21:24:20.667Z,3.23
2018-04-27T21:26:48.895Z,1.80
2018-04-27T21:29:17.927Z,1.90
2018-04-27T21:31:46.209Z,1.73
2018-04-27T21:34:14.615Z,2.10
2018-04-27T21:36:45.479Z,1.70
2018-04-27T21:39:17.480Z,2.00
2018-04-27T21:41:50.103Z,1.73
2018-04-27T21:44:23.767Z,1.60
2018-04-27T21:47:02.623Z,1.90
2018-04-27T21:49:32.001Z,2.07
2018-04-27T21:52:17.691Z,1.70
2018-04-27T21:54:48.592Z,1.60
2018-04-27T22:00:15.632Z,2.07
2018-04-27T22:02:49.327Z,2.53
2018-04-27T22:08:40.991Z,1.90
2018-04-27T22:11:17.927Z,1.80
2018-04-27T22:13:46.183Z,1.73
2018-04-27T22:16:21.874Z,1.70
2018-04-27T22:18:50.131Z,1.90
2018-04-27T22:21:18.365Z,1.70
2018-04-27T22:23:46.601Z,1.43
2018-04-27T22:26:18.268Z,1.70
2018-04-27T22:28:49.383Z,1.80
2018-04-27T22:31:17.619Z,1.70
2018-04-27T22:33:46.438Z,1.70
2018-04-27T22:42:25.222Z,1.50
2018-04-27T22:45:17.883Z,1.80
2018-04-27T22:50:53.582Z,2.30
2018-04-27T22:53:21.819Z,2.60
2018-04-27T22:55:50.075Z,2.33
2018-04-27T22:58:18.311Z,2.43
2018-04-27T23:01:04.313Z,2.40
2018-04-27T23:03:33.345Z,2.23
2018-04-27T23:06:01.689Z,2.00
2018-04-27T23:08:31.488Z,2.40
2018-04-27T23:11:09.411Z,2.07
2018-04-27T23:16:50.120Z,1.80
2018-04-27T23:19:19.289Z,2.10
2018-04-27T23:21:59.062Z,2.10
2018-04-27T23:24:27.338Z,1.93
2018-04-27T23:27:02.564Z,2.50
2018-04-27T23:29:31.948Z,1.90
2018-04-27T23:32:00.177Z,2.03
2018-04-27T23:34:28.429Z,1.60
2018-04-27T23:36:57.602Z,1.80
2018-04-27T23:39:25.863Z,2.00
2018-04-27T23:41:54.139Z,1.60
2018-04-27T23:44:23.763Z,1.83
2018-04-27T23:46:52.773Z,1.70
2018-04-27T23:49:21.786Z,1.73
2018-04-27T23:51:50.940Z,1.60
2018-04-27T23:54:19.167Z,1.60
2018-04-27T23:56:48.979Z,1.60
2018-04-27T23:59:21.770Z,1.80
